Time;durP1;ratioP1;P1;durP2;ratioP2;P2;SDS_P1;SDS_P2;PMS_P1;PMS_P2;Temp;Humidity;BMP_temperature;BMP_pressure;BME280_temperature;BME280_humidity;BME280_pressure;Samples;Min_cycle;Max_cycle;Signal;HPM_P1;HPM_P2
2023/04/07 00:00:14;;;;;;;36.72;23.13;;;;;;;7.49;100.00;101299.41;4957467;28;20028;-73
2023/04/07 00:02:41;;;;;;;32.63;19.67;;;;;;;7.48;100.00;101295.97;4962497;28;20082;-72
2023/04/07 00:05:06;;;;;;;27.50;20.25;;;;;;;7.47;100.00;101293.28;4967035;28;20101;-72
2023/04/07 00:07:32;;;;;;;30.77;19.95;;;;;;;7.47;100.00;101303.59;4955815;28;20118;-72
2023/04/07 00:09:57;;;;;;;28.98;19.75;;;;;;;7.45;100.00;101304.41;4964852;28;20023;-72
2023/04/07 00:12:22;;;;;;;29.38;19.80;;;;;;;7.45;100.00;101307.00;4966266;28;20027;-72
2023/04/07 00:14:47;;;;;;;24.48;19.42;;;;;;;7.43;100.00;101306.03;4966297;28;20118;-73
2023/04/07 00:17:13;;;;;;;25.33;20.17;;;;;;;7.42;100.00;101303.38;4967948;28;20392;-72
2023/04/07 00:19:38;;;;;;;26.67;18.60;;;;;;;7.41;100.00;101307.63;4962081;28;20031;-73
2023/04/07 00:22:03;;;;;;;18.65;16.52;;;;;;;7.40;100.00;101302.41;4964923;28;20038;-72
2023/04/07 00:24:28;;;;;;;19.55;15.70;;;;;;;7.37;100.00;101303.16;4950586;28;20039;-72
2023/04/07 00:26:55;;;;;;;21.20;16.90;;;;;;;7.34;100.00;101310.69;4961765;28;20542;-72
2023/04/07 00:29:20;;;;;;;19.85;17.42;;;;;;;7.31;100.00;101306.28;4955718;28;20026;-73
2023/04/07 00:31:46;;;;;;;21.85;18.00;;;;;;;7.30;100.00;101309.66;4958237;28;20030;-73
2023/04/07 00:34:11;;;;;;;24.13;18.27;;;;;;;7.29;100.00;101307.88;4960082;28;20112;-72
2023/04/07 00:36:36;;;;;;;23.52;16.45;;;;;;;7.28;100.00;101311.28;4959826;28;20039;-72
2023/04/07 00:39:01;;;;;;;19.02;15.60;;;;;;;7.26;100.00;101312.88;4963290;28;20625;-72
2023/04/07 00:41:27;;;;;;;15.75;13.68;;;;;;;7.25;100.00;101315.38;4955095;28;20867;-72
2023/04/07 00:43:52;;;;;;;20.92;13.63;;;;;;;7.23;100.00;101314.41;4959500;28;20041;-72
2023/04/07 00:46:21;;;;;;;23.50;13.82;;;;;;;7.21;100.00;101314.34;4957775;28;20101;-72
2023/04/07 00:48:46;;;;;;;17.98;13.98;;;;;;;7.19;100.00;101305.63;4963894;28;20038;-72
2023/04/07 00:51:12;;;;;;;18.42;14.35;;;;;;;7.19;100.00;101306.53;4963665;28;20026;-72
2023/04/07 00:53:38;;;;;;;18.42;16.02;;;;;;;7.17;100.00;101297.81;4965776;28;20379;-72
2023/04/07 00:56:03;;;;;;;18.98;16.38;;;;;;;7.18;100.00;101306.41;4962408;28;20059;-71
2023/04/07 00:58:29;;;;;;;20.75;17.23;;;;;;;7.16;100.00;101306.34;4967644;28;20058;-72
2023/04/07 01:01:01;;;;;;;22.15;17.77;;;;;;;7.16;100.00;101302.91;4963788;28;20449;-72
2023/04/07 01:03:48;;;;;;;20.90;17.15;;;;;;;7.13;100.00;101298.44;4970086;28;20037;-72
2023/04/07 01:06:17;;;;;;;23.38;17.90;;;;;;;7.13;100.00;101301.03;4964890;28;20026;-72
2023/04/07 01:09:03;;;;;;;20.25;17.45;;;;;;;7.12;100.00;101299.25;4967572;28;20117;-73
2023/04/07 01:12:01;;;;;;;20.77;18.55;;;;;;;7.12;100.00;101309.56;4963509;28;20523;-72
2023/04/07 01:14:32;;;;;;;23.27;15.45;;;;;;;7.11;100.00;101296.59;4956766;28;20047;-73
2023/04/07 01:17:02;;;;;;;21.35;13.63;;;;;;;7.09;100.00;101301.66;4976106;28;20546;-72
2023/04/07 01:19:38;;;;;;;15.50;12.73;;;;;;;7.08;100.00;101305.06;4960484;28;20026;-72
2023/04/07 01:22:09;;;;;;;16.38;12.23;;;;;;;7.07;100.00;101311.00;4968199;28;20471;-73
2023/04/07 01:24:51;;;;;;;17.83;13.65;;;;;;;7.04;100.00;101314.31;4979714;28;20495;-73
2023/04/07 01:27:41;;;;;;;14.40;12.90;;;;;;;7.05;100.00;101307.47;4961798;28;20547;-72
2023/04/07 01:30:10;;;;;;;12.40;10.25;;;;;;;7.04;100.00;101308.25;4968034;28;20026;-72
2023/04/07 01:32:38;;;;;;;16.65;10.63;;;;;;;7.02;100.00;101312.44;4970746;28;20917;-72
2023/04/07 01:35:08;;;;;;;12.85;11.32;;;;;;;7.01;100.00;101311.56;4957502;28;20029;-71
2023/04/07 01:37:34;;;;;;;14.73;12.30;;;;;;;7.00;100.00;101314.06;4967252;28;20314;-71
2023/04/07 01:40:00;;;;;;;17.80;12.88;;;;;;;6.97;100.00;101305.38;4973679;28;20503;-73
2023/04/07 01:42:26;;;;;;;20.52;14.82;;;;;;;7.00;100.00;101308.91;4968886;28;20021;-72
2023/04/07 01:44:52;;;;;;;19.70;14.98;;;;;;;6.99;100.00;101312.28;4956726;28;20073;-72
2023/04/07 01:47:17;;;;;;;16.92;14.38;;;;;;;6.98;100.00;101316.53;4969108;28;20150;-72
2023/04/07 01:49:45;;;;;;;17.25;12.45;;;;;;;6.99;100.00;101332.88;4979116;28;20520;-72
2023/04/07 01:52:11;;;;;;;19.90;12.70;;;;;;;6.99;100.00;101327.75;4970972;28;20019;-72
2023/04/07 01:54:38;;;;;;;15.77;12.20;;;;;;;6.97;100.00;101330.22;4962913;28;20023;-73
2023/04/07 01:57:03;;;;;;;12.15;8.98;;;;;;;6.95;100.00;101332.72;4982478;28;20018;-72
2023/04/07 01:59:29;;;;;;;11.73;7.63;;;;;;;6.93;100.00;101334.34;4967841;28;20294;-72
2023/04/07 02:01:54;;;;;;;11.43;7.68;;;;;;;6.92;100.00;101332.56;4981327;28;20027;-72
2023/04/07 02:04:36;;;;;;;12.20;8.00;;;;;;;6.91;100.00;101342.78;4972457;28;20101;-72
2023/04/07 02:07:08;;;;;;;14.05;8.77;;;;;;;6.89;100.00;101342.69;4976883;28;20022;-73
2023/04/07 02:09:39;;;;;;;8.75;7.72;;;;;;;6.89;100.00;101340.13;4965556;28;20035;-72
2023/04/07 02:12:08;;;;;;;11.57;7.70;;;;;;;6.88;100.00;101337.44;4978528;28;20034;-72
2023/04/07 02:14:35;;;;;;;9.95;8.20;;;;;;;6.87;100.00;101334.00;4967295;28;20051;-72
2023/04/07 02:17:02;;;;;;;13.13;8.95;;;;;;;6.87;100.00;101333.13;4973862;28;20018;-73
2023/04/07 02:19:29;;;;;;;13.43;8.90;;;;;;;6.86;100.00;101332.22;4962970;28;20379;-72
2023/04/07 02:21:55;;;;;;;11.00;7.72;;;;;;;6.85;100.00;101340.75;4966177;28;20030;-72
2023/04/07 02:24:20;;;;;;;14.52;8.45;;;;;;;6.84;100.00;101333.81;4966262;28;20023;-72
2023/04/07 02:26:46;;;;;;;12.63;8.50;;;;;;;6.84;100.00;101333.81;4967248;28;20031;-72
2023/04/07 02:29:12;;;;;;;12.00;8.50;;;;;;;6.83;100.00;101332.06;4970501;28;20383;-72
2023/04/07 02:31:37;;;;;;;11.45;8.30;;;;;;;6.84;100.00;101333.81;4971611;28;20049;-72
2023/04/07 02:34:03;;;;;;;9.60;8.48;;;;;;;6.82;100.00;101327.69;4976390;28;20109;-73
2023/04/07 02:36:28;;;;;;;11.35;9.30;;;;;;;6.81;100.00;101331.09;4968890;28;20042;-72
2023/04/07 02:38:54;;;;;;;13.55;9.07;;;;;;;6.80;100.00;101332.75;4976730;28;20029;-72
2023/04/07 02:41:20;;;;;;;12.45;9.70;;;;;;;6.80;100.00;101327.59;4968060;28;20407;-72
2023/04/07 02:43:45;;;;;;;13.27;9.40;;;;;;;6.80;100.00;101334.47;4968035;28;20054;-72
2023/04/07 02:46:11;;;;;;;13.52;10.10;;;;;;;6.79;100.00;101332.69;4964294;28;20035;-71
2023/04/07 02:48:36;;;;;;;16.08;10.63;;;;;;;6.79;100.00;101340.41;4979338;28;20034;-72
2023/04/07 02:51:01;;;;;;;13.32;10.30;;;;;;;6.78;100.00;101338.66;4962696;28;20259;-71
2023/04/07 02:53:27;;;;;;;17.90;11.35;;;;;;;6.78;100.00;101333.50;4978566;28;20027;-72
2023/04/07 02:55:52;;;;;;;13.90;10.38;;;;;;;6.77;100.00;101331.69;4972719;28;20023;-71
2023/04/07 02:58:17;;;;;;;13.45;10.35;;;;;;;6.79;100.00;101335.25;4972606;28;20042;-71
2023/04/07 03:00:43;;;;;;;14.57;10.60;;;;;;;6.79;100.00;101340.41;4974950;28;20387;-71
2023/04/07 03:03:08;;;;;;;12.43;10.20;;;;;;;6.79;100.00;101332.69;4974636;28;20513;-72
2023/04/07 03:05:33;;;;;;;15.77;9.85;;;;;;;6.78;100.00;101333.50;4967490;28;20047;-71
2023/04/07 03:07:59;;;;;;;15.68;10.45;;;;;;;6.79;100.00;101332.69;4966639;28;20031;-72
2023/04/07 03:10:24;;;;;;;13.30;9.88;;;;;;;6.78;100.00;101338.66;4971693;28;20018;-71
2023/04/07 03:12:49;;;;;;;12.35;9.73;;;;;;;6.78;100.00;101333.50;4956593;28;20116;-71
2023/04/07 03:15:15;;;;;;;13.50;8.80;;;;;;;6.78;100.00;101336.06;4963025;28;20403;-72
2023/04/07 03:17:40;;;;;;;13.48;8.65;;;;;;;6.77;100.00;101331.69;4981214;28;20026;-72
2023/04/07 03:20:07;;;;;;;13.02;8.88;;;;;;;6.77;100.00;101331.69;4968165;28;20031;-71
2023/04/07 03:22:32;;;;;;;10.98;7.13;;;;;;;6.76;100.00;101338.56;4966080;28;20027;-71
2023/04/07 03:24:58;;;;;;;12.23;7.95;;;;;;;6.76;100.00;101335.09;4965176;28;20053;-72
2023/04/07 03:27:23;;;;;;;9.00;7.00;;;;;;;6.76;100.00;101329.94;4967159;28;20030;-71
2023/04/07 03:29:50;;;;;;;13.38;7.72;;;;;;;6.73;100.00;101334.13;4955446;28;20093;-72
2023/04/07 03:32:15;;;;;;;8.80;6.00;;;;;;;6.74;100.00;101337.59;4967071;28;20492;-72
2023/04/07 03:34:40;;;;;;;7.60;5.57;;;;;;;6.75;100.00;101341.03;4966887;28;20081;-71
2023/04/07 03:37:06;;;;;;;9.32;5.47;;;;;;;6.73;100.00;101341.84;4967837;28;20026;-72
2023/04/07 03:39:31;;;;;;;11.32;6.25;;;;;;;6.74;100.00;101337.59;4965596;28;20471;-72
2023/04/07 03:41:57;;;;;;;10.55;6.88;;;;;;;6.72;100.00;101334.94;4951034;28;20102;-72
2023/04/07 03:44:22;;;;;;;13.60;7.90;;;;;;;6.73;100.00;101344.41;4963443;28;20042;-72
2023/04/07 03:46:49;;;;;;;10.55;8.13;;;;;;;6.71;100.00;101343.44;4950515;28;20027;-72
2023/04/07 03:49:15;;;;;;;11.75;9.93;;;;;;;6.71;100.00;101343.44;4961848;28;20026;-72
2023/04/07 03:51:40;;;;;;;14.80;10.68;;;;;;;6.71;100.00;101338.28;4966054;28;20030;-71
2023/04/07 03:54:05;;;;;;;15.75;11.07;;;;;;;6.71;100.00;101338.28;4966945;28;20026;-72
2023/04/07 03:56:31;;;;;;;15.60;11.52;;;;;;;6.71;100.00;101343.44;4969891;28;20057;-71
2023/04/07 03:58:56;;;;;;;15.30;11.45;;;;;;;6.71;100.00;101347.72;4975201;28;20023;-72
2023/04/07 04:01:21;;;;;;;16.73;11.90;;;;;;;6.70;100.00;101349.41;4965640;28;20022;-72
2023/04/07 04:03:48;;;;;;;19.02;12.27;;;;;;;6.70;100.00;101351.97;4965560;28;20058;-71
2023/04/07 04:06:13;;;;;;;17.38;12.75;;;;;;;6.69;100.00;101350.19;4959843;28;20030;-72
2023/04/07 04:08:39;;;;;;;19.63;13.10;;;;;;;6.70;100.00;101340.78;4965442;28;20022;-72
2023/04/07 04:11:04;;;;;;;24.70;13.25;;;;;;;6.69;100.00;101347.63;4963056;28;20107;-72
2023/04/07 04:13:30;;;;;;;20.00;12.50;;;;;;;6.68;100.00;101350.09;4972086;28;20069;-72
2023/04/07 04:15:55;;;;;;;20.90;12.57;;;;;;;6.67;100.00;101349.25;4967637;28;20459;-72
2023/04/07 04:18:21;;;;;;;24.35;12.75;;;;;;;6.67;100.00;101345.78;4958943;28;20023;-71
2023/04/07 04:20:46;;;;;;;20.40;13.00;;;;;;;6.67;100.00;101345.78;4967847;28;20469;-71
2023/04/07 04:23:12;;;;;;;18.08;11.93;;;;;;;6.64;100.00;101351.63;4958734;28;20019;-71
2023/04/07 04:25:39;;;;;;;20.42;13.68;;;;;;;6.64;100.00;101355.91;4962786;28;20487;-71
2023/04/07 04:28:05;;;;;;;18.95;12.27;;;;;;;6.63;100.00;101349.88;4966745;28;20323;-72
2023/04/07 04:30:30;;;;;;;16.35;11.57;;;;;;;6.62;100.00;101348.06;4964247;28;20323;-71
2023/04/07 04:32:55;;;;;;;19.48;11.30;;;;;;;6.60;100.00;101345.41;4962930;28;20030;-71
2023/04/07 04:35:21;;;;;;;20.50;12.65;;;;;;;6.58;100.00;101352.16;4979109;28;20025;-71
2023/04/07 04:37:46;;;;;;;18.35;11.75;;;;;;;6.55;100.00;101345.97;4965181;28;20572;-71
2023/04/07 04:40:12;;;;;;;20.98;12.43;;;;;;;6.51;100.00;101352.66;4969346;28;20022;-72
2023/04/07 04:42:37;;;;;;;21.48;12.68;;;;;;;6.48;100.00;101355.91;4963922;28;20574;-71
2023/04/07 04:45:03;;;;;;;19.10;11.23;;;;;;;6.44;100.00;101353.97;4970154;28;20066;-71
2023/04/07 04:47:28;;;;;;;17.88;11.85;;;;;;;6.41;100.00;101358.03;4967501;28;20505;-71
2023/04/07 04:49:54;;;;;;;18.88;11.90;;;;;;;6.38;100.00;101369.06;4975072;28;20704;-72
2023/04/07 04:52:19;;;;;;;16.77;10.30;;;;;;;6.34;100.00;101373.16;4970401;28;20015;-71
2023/04/07 04:54:45;;;;;;;18.83;10.57;;;;;;;6.30;100.00;101378.00;4962911;28;20023;-71
2023/04/07 04:57:10;;;;;;;18.95;10.90;;;;;;;6.23;100.00;101375.09;4969872;28;20033;-71
2023/04/07 04:59:35;;;;;;;18.58;10.95;;;;;;;6.19;100.00;101378.28;4961938;28;20023;-71
2023/04/07 05:02:01;;;;;;;20.73;11.75;;;;;;;6.17;100.00;101386.72;4966423;28;20051;-71
2023/04/07 05:04:27;;;;;;;19.50;11.65;;;;;;;6.13;100.00;101388.22;4956479;28;20487;-71
2023/04/07 05:06:52;;;;;;;21.67;11.68;;;;;;;6.15;100.00;101391.78;4958428;28;20487;-71
2023/04/07 05:09:17;;;;;;;20.00;11.75;;;;;;;6.15;100.00;101386.63;4960859;28;20034;-72
2023/04/07 05:11:43;;;;;;;19.38;11.93;;;;;;;6.13;100.00;101390.81;4968306;28;20172;-71
2023/04/07 05:14:08;;;;;;;15.95;11.05;;;;;;;6.13;100.00;101388.22;4959901;28;20619;-71
2023/04/07 05:16:34;;;;;;;20.75;11.60;;;;;;;6.13;100.00;101388.22;4975777;28;20030;-72
2023/04/07 05:19:00;;;;;;;17.23;11.10;;;;;;;6.17;100.00;101390.16;4969539;28;20469;-72
2023/04/07 05:21:25;;;;;;;26.05;12.57;;;;;;;6.19;100.00;101395.44;4963716;28;20031;-72
2023/04/07 05:23:51;;;;;;;22.63;11.43;;;;;;;6.21;100.00;101394.72;4969455;28;20039;-71
2023/04/07 05:26:17;;;;;;;21.35;11.20;;;;;;;6.22;100.00;101393.91;4962632;28;20034;-71
2023/04/07 05:28:42;;;;;;;21.08;11.77;;;;;;;6.24;100.00;101397.44;4957461;28;20114;-71
2023/04/07 05:31:07;;;;;;;21.80;12.48;;;;;;;6.28;100.00;101400.22;4968516;28;20188;-71
2023/04/07 05:33:33;;;;;;;20.73;12.80;;;;;;;6.28;100.00;101398.53;4965552;28;20039;-71
2023/04/07 05:35:58;;;;;;;24.63;12.02;;;;;;;6.31;100.00;101405.53;4974447;28;20022;-72
2023/04/07 05:38:24;;;;;;;21.08;12.48;;;;;;;6.32;100.00;101404.75;4969422;28;20019;-72
2023/04/07 05:40:49;;;;;;;22.65;12.15;;;;;;;6.34;100.00;101411.75;4957722;28;20093;-71
2023/04/07 05:43:15;;;;;;;16.38;10.80;;;;;;;6.36;100.00;101406.69;4966119;28;20019;-72
2023/04/07 05:45:40;;;;;;;19.55;12.35;;;;;;;6.36;100.00;101405.03;4969910;28;20081;-71
2023/04/07 05:48:05;;;;;;;20.80;12.52;;;;;;;6.38;100.00;101410.25;4972298;28;20137;-72
2023/04/07 05:50:30;;;;;;;19.05;11.52;;;;;;;6.40;100.00;101406.09;4969596;28;20496;-70
2023/04/07 05:52:56;;;;;;;16.67;12.68;;;;;;;6.41;100.00;101407.84;4970888;28;20038;-70
2023/04/07 05:55:21;;;;;;;20.88;12.38;;;;;;;6.42;100.00;101412.19;4967460;28;20034;-70
2023/04/07 05:57:47;;;;;;;20.35;11.88;;;;;;;6.45;100.00;101404.66;4969549;28;20126;-69
2023/04/07 06:00:13;;;;;;;23.05;11.82;;;;;;;6.47;100.00;101409.91;4978323;28;20034;-69
2023/04/07 06:02:38;;;;;;;20.30;11.73;;;;;;;6.48;100.00;101412.56;4981806;28;20026;-69
2023/04/07 06:05:05;;;;;;;20.25;13.23;;;;;;;6.51;100.00;101416.13;4962597;28;20117;-70
2023/04/07 06:07:30;;;;;;;22.17;12.77;;;;;;;6.53;100.00;101419.69;4977117;28;20053;-70
2023/04/07 06:09:55;;;;;;;20.77;12.65;;;;;;;6.54;100.00;101426.59;4969833;28;20023;-70
2023/04/07 06:12:20;;;;;;;24.77;13.45;;;;;;;6.56;100.00;101427.56;4968691;28;20050;-69
2023/04/07 06:14:51;;;;;;;19.55;13.10;;;;;;;6.57;100.00;101427.66;4977521;28;20054;-70
2023/04/07 06:17:17;;;;;;;19.25;12.35;;;;;;;6.59;100.00;101425.16;4988885;28;20053;-71
2023/04/07 06:19:42;;;;;;;19.35;13.00;;;;;;;6.62;100.00;101429.63;4972971;28;20045;-70
2023/04/07 06:22:07;;;;;;;20.83;13.30;;;;;;;6.63;100.00;101432.28;4976932;28;20365;-70
2023/04/07 06:24:32;;;;;;;20.70;13.52;;;;;;;6.65;100.00;101435.84;4968229;28;20415;-70
2023/04/07 06:27:00;;;;;;;21.83;13.65;;;;;;;6.66;100.00;101435.03;4986480;28;20022;-70
2023/04/07 06:29:25;;;;;;;24.45;14.40;;;;;;;6.69;100.00;101442.06;4984131;28;20101;-70
2023/04/07 06:31:51;;;;;;;19.05;13.55;;;;;;;6.70;100.00;101437.00;4968738;28;20465;-70
2023/04/07 06:34:16;;;;;;;20.60;14.10;;;;;;;6.72;100.00;101444.81;4967249;28;20258;-70
2023/04/07 06:36:41;;;;;;;22.58;13.25;;;;;;;6.71;100.00;101446.47;4962312;28;20059;-71
2023/04/07 06:39:06;;;;;;;21.15;13.57;;;;;;;6.73;100.00;101444.88;4969581;28;20019;-70
2023/04/07 06:41:32;;;;;;;25.08;14.68;;;;;;;6.74;100.00;101443.22;4964121;28;20031;-70
2023/04/07 06:43:57;;;;;;;25.23;15.13;;;;;;;6.76;100.00;101458.75;4971877;28;20065;-70
2023/04/07 06:46:25;;;;;;;22.83;13.88;;;;;;;6.76;100.00;101454.50;4982587;28;20404;-71
2023/04/07 06:48:50;;;;;;;20.75;14.95;;;;;;;6.79;100.00;101453.75;4972011;28;20060;-70
2023/04/07 06:51:15;;;;;;;24.70;13.98;;;;;;;6.83;100.00;101455.72;4984228;28;20058;-70
2023/04/07 06:53:43;;;;;;;23.20;14.85;;;;;;;6.86;100.00;101463.63;4972476;28;20480;-70
2023/04/07 06:56:10;;;;;;;22.13;14.63;;;;;;;6.89;100.00;101461.22;4980381;28;20061;-70
2023/04/07 06:58:36;;;;;;;21.05;14.68;;;;;;;6.92;100.00;101453.69;4985749;28;20391;-70
2023/04/07 07:01:02;;;;;;;23.88;15.88;;;;;;;6.97;100.00;101459.97;4988327;28;20067;-71
2023/04/07 07:03:28;;;;;;;24.88;16.23;;;;;;;7.00;100.00;101464.41;4984532;28;20029;-70
2023/04/07 07:05:57;;;;;;;20.50;14.90;;;;;;;7.05;100.00;101468.13;4983316;28;20546;-71
2023/04/07 07:08:24;;;;;;;25.05;15.30;;;;;;;7.09;100.00;101469.19;4979225;28;20030;-70
2023/04/07 07:10:49;;;;;;;18.92;13.75;;;;;;;7.12;100.00;101471.97;4971538;28;20033;-71
2023/04/07 07:13:15;;;;;;;24.75;14.77;;;;;;;7.14;100.00;101470.34;4972893;28;20030;-70
2023/04/07 07:15:40;;;;;;;22.48;14.68;;;;;;;7.18;100.00;101472.28;4974086;28;20545;-71
2023/04/07 07:18:05;;;;;;;19.23;13.93;;;;;;;7.19;100.00;101465.44;4976238;28;20284;-70
2023/04/07 07:20:31;;;;;;;21.25;13.93;;;;;;;7.21;100.00;101474.16;4972004;28;20070;-70
2023/04/07 07:22:57;;;;;;;23.85;14.73;;;;;;;7.24;100.00;101473.44;4972879;28;20034;-70
2023/04/07 07:25:22;;;;;;;20.15;13.63;;;;;;;7.30;100.00;101472.06;4970674;28;20059;-71
2023/04/07 07:27:52;;;;;;;18.85;12.65;;;;;;;7.36;100.00;101481.84;4961612;28;20106;-71
2023/04/07 07:30:17;;;;;;;22.20;14.20;;;;;;;7.45;100.00;101479.78;4969178;28;20026;-70
2023/04/07 07:32:43;;;;;;;17.08;11.43;;;;;;;7.53;100.00;101479.31;4967133;28;20038;-71
2023/04/07 07:35:08;;;;;;;16.73;10.93;;;;;;;7.61;100.00;101485.78;4979178;28;20391;-70
2023/04/07 07:37:33;;;;;;;12.65;9.73;;;;;;;7.69;100.00;101481.94;4978559;28;20153;-69
2023/04/07 07:39:59;;;;;;;14.27;8.82;;;;;;;7.80;100.00;101489.38;4978617;28;20101;-70
2023/04/07 07:42:24;;;;;;;12.43;7.78;;;;;;;7.88;100.00;101494.94;4974944;28;20038;-71
2023/04/07 07:44:49;;;;;;;12.35;8.48;;;;;;;7.93;100.00;101499.53;4976813;28;20070;-71
2023/04/07 07:47:15;;;;;;;11.18;6.95;;;;;;;7.98;100.00;101496.31;4977887;28;20385;-71
2023/04/07 07:49:40;;;;;;;10.75;6.57;;;;;;;8.01;100.00;101504.22;4975749;28;20034;-71
2023/04/07 07:52:06;;;;;;;9.30;5.82;;;;;;;7.99;100.00;101503.25;4986055;28;20109;-71
2023/04/07 07:54:31;;;;;;;8.48;5.80;;;;;;;7.97;100.00;101508.31;4982122;28;20125;-70
2023/04/07 07:56:56;;;;;;;11.75;6.20;;;;;;;7.93;100.00;101501.25;4959995;28;20487;-70
2023/04/07 07:59:21;;;;;;;8.77;6.00;;;;;;;7.91;100.00;101506.31;4958334;28;20027;-70
2023/04/07 08:01:47;;;;;;;13.00;7.72;;;;;;;7.89;100.00;101507.94;4961908;28;20035;-70
2023/04/07 08:04:12;;;;;;;9.65;6.28;;;;;;;7.89;100.00;101517.34;4960859;28;20039;-70
2023/04/07 08:06:38;;;;;;;15.10;6.28;;;;;;;7.88;100.00;101511.31;4963074;28;20038;-70
2023/04/07 08:09:05;;;;;;;8.68;5.20;;;;;;;7.87;100.00;101514.69;4956011;28;20037;-70
2023/04/07 08:11:30;;;;;;;9.60;5.50;;;;;;;7.90;100.00;101520.03;4951838;28;20034;-70
2023/04/07 08:13:55;;;;;;;8.48;5.70;;;;;;;7.93;100.00;101520.19;4954663;28;20401;-70
2023/04/07 08:16:21;;;;;;;8.68;5.38;;;;;;;7.95;100.00;101525.41;4965082;28;20117;-71
2023/04/07 08:18:46;;;;;;;6.65;4.55;;;;;;;7.99;100.00;101529.94;4962423;28;20539;-69
2023/04/07 08:21:12;;;;;;;5.82;4.13;;;;;;;8.03;100.00;101533.59;4962952;28;20435;-70
2023/04/07 08:23:37;;;;;;;5.38;4.43;;;;;;;8.07;100.00;101532.94;4967852;28;20305;-71
2023/04/07 08:26:02;;;;;;;8.57;4.40;;;;;;;8.09;100.00;101536.50;4970872;28;20026;-71
2023/04/07 08:28:28;;;;;;;5.68;3.80;;;;;;;8.12;100.00;101530.59;4957139;28;20063;-70
2023/04/07 08:30:53;;;;;;;6.82;4.88;;;;;;;8.12;100.00;101539.25;4967791;28;20110;-70
2023/04/07 08:33:18;;;;;;;7.18;3.92;;;;;;;8.15;100.00;101541.09;4960370;28;20335;-70
2023/04/07 08:35:43;;;;;;;7.13;4.20;;;;;;;8.11;100.00;101539.16;4958085;28;20531;-70
2023/04/07 08:38:09;;;;;;;7.35;4.50;;;;;;;8.09;100.00;101549.41;4957708;28;20082;-69
2023/04/07 08:40:34;;;;;;;6.80;4.70;;;;;;;8.08;100.00;101542.47;4964398;28;20042;-70
2023/04/07 08:43:05;;;;;;;6.68;4.38;;;;;;;8.06;100.00;101546.66;4952184;28;20456;-70
2023/04/07 08:45:32;;;;;;;8.60;5.47;;;;;;;8.03;100.00;101546.50;4973070;28;20050;-70
2023/04/07 08:48:03;;;;;;;10.77;5.45;;;;;;;7.99;100.00;101553.19;4955019;28;20035;-70
2023/04/07 08:50:28;;;;;;;7.95;5.00;;;;;;;7.96;100.00;101555.59;4947301;28;20122;-70
2023/04/07 08:52:56;;;;;;;6.60;4.68;;;;;;;7.92;100.00;101557.13;4956391;28;20031;-70
2023/04/07 08:55:22;;;;;;;8.65;4.35;;;;;;;7.90;100.00;101561.31;4962927;28;20474;-70
2023/04/07 08:57:48;;;;;;;8.38;4.32;;;;;;;7.92;100.00;101563.97;4963831;28;20027;-70
2023/04/07 09:00:14;;;;;;;7.25;4.65;;;;;;;7.94;100.00;101567.53;4956322;28;21351;-70
2023/04/07 09:02:46;;;;;;;7.60;4.57;;;;;;;8.00;100.00;101569.56;4958135;28;20027;-70
2023/04/07 09:05:13;;;;;;;5.70;4.38;;;;;;;8.05;100.00;101571.59;4959261;28;20361;-71
2023/04/07 09:07:39;;;;;;;6.07;4.03;;;;;;;8.12;100.00;101572.81;4969221;28;20541;-71
2023/04/07 09:10:06;;;;;;;5.47;4.10;;;;;;;8.19;100.00;101562.78;4964975;28;20534;-71
2023/04/07 09:12:32;;;;;;;10.70;5.47;;;;;;;8.28;100.00;101568.44;4947884;28;20075;-70
2023/04/07 09:14:58;;;;;;;6.30;4.22;;;;;;;8.35;100.00;101575.72;4957295;28;20086;-69
2023/04/07 09:17:28;;;;;;;7.05;4.50;;;;;;;8.43;100.00;101568.38;4965755;28;20030;-70
2023/04/07 09:19:58;;;;;;;4.38;3.58;;;;;;;8.48;100.00;101577.25;4963957;28;20387;-70
2023/04/07 09:22:41;;;;;;;4.85;3.28;;;;;;;8.54;100.00;101574.13;4968372;28;20106;-71
2023/04/07 09:25:22;;;;;;;6.03;3.80;;;;;;;8.57;100.00;101582.06;4977335;28;20054;-71
2023/04/07 09:28:00;;;;;;;5.78;3.53;;;;;;;8.57;100.00;101579.47;4978822;28;20038;-72
2023/04/07 09:30:26;;;;;;;6.30;3.60;;;;;;;8.58;100.00;101577.78;4969593;28;20493;-71
2023/04/07 09:32:52;;;;;;;6.50;3.20;;;;;;;8.55;100.00;101581.03;4959734;28;20038;-70
2023/04/07 09:35:17;;;;;;;6.70;3.42;;;;;;;8.54;100.00;101584.44;4964988;28;20283;-71
2023/04/07 09:37:43;;;;;;;5.63;3.45;;;;;;;8.52;100.00;101586.97;4963756;28;20027;-71
2023/04/07 09:40:09;;;;;;;4.68;3.13;;;;;;;8.52;100.00;101578.31;4967718;28;20078;-70
2023/04/07 09:42:36;;;;;;;5.70;3.20;;;;;;;8.50;100.00;101579.91;4958429;28;20468;-72
2023/04/07 09:45:02;;;;;;;6.30;3.65;;;;;;;8.50;100.00;101579.91;4958429;28;20085;-71
2023/04/07 09:47:30;;;;;;;4.57;3.00;;;;;;;8.49;100.00;101586.78;4961517;28;20030;-72
2023/04/07 09:49:56;;;;;;;8.63;4.22;;;;;;;8.46;100.00;101578.88;4970786;28;20383;-71
2023/04/07 09:52:46;;;;;;;6.57;3.30;;;;;;;8.48;100.00;101585.00;4959775;28;20054;-71
2023/04/07 09:55:12;;;;;;;7.57;3.80;;;;;;;8.49;100.00;101576.44;4954719;28;20471;-71
2023/04/07 09:57:38;;;;;;;4.47;2.50;;;;;;;8.54;100.00;101584.44;4968661;28;20542;-71
2023/04/07 10:00:04;;;;;;;7.43;2.72;;;;;;;8.58;100.00;101588.97;4970305;28;20170;-70
2023/04/07 10:02:31;;;;;;;4.07;2.15;;;;;;;8.61;100.00;101589.16;4964293;28;20114;-71
2023/04/07 10:04:58;;;;;;;5.32;2.80;;;;;;;8.63;100.00;101587.53;4973244;28;20029;-70
2023/04/07 10:07:24;;;;;;;6.88;3.40;;;;;;;8.63;100.00;101594.41;4965047;28;20427;-70
2023/04/07 10:09:49;;;;;;;6.18;2.78;;;;;;;8.60;100.00;101592.53;4981312;28;20015;-71
2023/04/07 10:12:15;;;;;;;7.43;2.63;;;;;;;8.58;100.00;101588.13;4987742;28;20026;-71
2023/04/07 10:14:45;;;;;;;9.18;3.25;;;;;;;8.53;100.00;101596.47;4985820;28;20089;-71
2023/04/07 10:17:17;;;;;;;8.60;3.23;;;;;;;8.49;100.00;101598.81;4987996;28;20034;-71
2023/04/07 10:19:43;;;;;;;8.88;3.00;;;;;;;8.43;100.00;101606.25;4968808;28;20687;-71
2023/04/07 10:22:08;;;;;;;7.38;3.20;;;;;;;8.37;100.00;101605.09;4969288;28;20029;-74
2023/04/07 10:24:48;;;;;;;6.05;3.55;;;;;;;8.32;100.00;101605.66;4957079;28;20019;-75
2023/04/07 10:27:18;;;;;;;8.57;3.75;;;;;;;8.27;100.00;101603.72;4970023;28;20037;-74
2023/04/07 10:29:47;;;;;;;8.50;3.45;;;;;;;8.26;100.00;101611.38;4967937;28;20486;-74
2023/04/07 10:32:13;;;;;;;9.68;3.40;;;;;;;8.26;100.00;101611.38;4970044;28;20022;-74
2023/04/07 10:34:52;;;;;;;13.55;4.88;;;;;;;8.28;100.00;101614.94;4961147;28;20095;-75
2023/04/07 10:37:20;;;;;;;5.60;3.13;;;;;;;8.32;100.00;101616.00;4955767;28;20022;-75
2023/04/07 10:39:45;;;;;;;7.88;3.00;;;;;;;8.36;100.00;101617.94;4968216;28;20034;-73
2023/04/07 10:42:35;;;;;;;6.35;2.78;;;;;;;8.41;100.00;101616.50;4961605;28;20023;-74
2023/04/07 10:45:02;;;;;;;6.53;3.00;;;;;;;8.44;100.00;101616.66;4979962;28;20577;-74
2023/04/07 10:47:28;;;;;;;4.60;2.45;;;;;;;8.51;100.00;101613.59;4987726;28;20022;-74
2023/04/07 10:50:11;;;;;;;8.02;2.70;;;;;;;8.60;100.00;101620.97;4988735;28;20022;-74
2023/04/07 10:52:37;;;;;;;5.70;2.63;;;;;;;8.71;100.00;101620.63;4970135;28;20391;-75
2023/04/07 10:55:29;;;;;;;6.07;2.60;;;;;;;8.84;100.00;101625.66;4982410;28;20129;-73
2023/04/07 10:58:14;;;;;;;4.68;2.47;;;;;;;8.98;100.00;101622.88;4988942;28;20026;-74
2023/04/07 11:00:39;;;;;;;6.55;2.42;;;;;;;9.07;100.00;101632.78;4976626;28;20036;-74
2023/04/07 11:03:12;;;;;;;8.65;2.83;;;;;;;9.13;100.00;101623.66;4968177;28;20387;-75
2023/04/07 11:05:41;;;;;;;7.18;3.47;;;;;;;9.20;100.00;101626.53;4978815;28;20496;-75
2023/04/07 11:08:06;;;;;;;4.25;2.40;;;;;;;9.22;100.00;101632.69;4985965;28;20347;-75
2023/04/07 11:10:33;;;;;;;6.07;2.88;;;;;;;9.21;100.00;101626.63;4978990;28;20027;-74
2023/04/07 11:13:04;;;;;;;4.38;2.53;;;;;;;9.20;100.00;101636.88;4979756;28;20682;-73